createdAt,value
2023-02-05T00:00:51.724Z,1.77
2023-02-05T00:03:22.962Z,1.65
2023-02-05T00:05:51.197Z,1.80
2023-02-05T00:08:19.371Z,1.48
2023-02-05T00:10:52.762Z,1.70
2023-02-05T00:13:20.987Z,2.05
2023-02-05T00:15:49.190Z,1.90
2023-02-05T00:18:18.789Z,1.67
2023-02-05T00:20:47.095Z,1.63
2023-02-05T00:23:15.381Z,1.70
2023-02-05T00:25:43.650Z,2.00
2023-02-05T00:28:11.919Z,1.67
2023-02-05T00:30:42.773Z,1.70
2023-02-05T00:33:11.045Z,1.90
2023-02-05T00:35:42.905Z,2.13
2023-02-05T00:38:12.804Z,1.88
2023-02-05T00:40:41.055Z,1.52
2023-02-05T00:43:11.123Z,1.55
2023-02-05T00:45:39.404Z,1.60
2023-02-05T00:48:08.258Z,1.50
2023-02-05T00:50:37.134Z,1.75
2023-02-05T00:53:06.909Z,1.40
2023-02-05T00:55:36.537Z,1.73
2023-02-05T00:58:04.848Z,1.80
2023-02-05T01:00:33.971Z,1.70
2023-02-05T01:03:02.426Z,1.42
2023-02-05T01:05:31.683Z,1.85
2023-02-05T01:08:00.096Z,1.80
2023-02-05T01:10:29.721Z,1.52
2023-02-05T01:12:58.117Z,1.77
2023-02-05T01:15:26.804Z,1.58
2023-02-05T01:17:55.033Z,1.70
2023-02-05T01:20:23.297Z,1.55
2023-02-05T01:22:51.455Z,1.60
2023-02-05T01:25:19.800Z,1.80
2023-02-05T01:27:49.507Z,1.70
2023-02-05T01:30:18.233Z,1.63
2023-02-05T01:32:46.437Z,1.92
2023-02-05T01:35:14.684Z,1.58
2023-02-05T01:37:42.935Z,1.70
2023-02-05T01:40:14.803Z,1.70
2023-02-05T01:42:43.817Z,2.05
2023-02-05T01:45:51.725Z,1.80
2023-02-05T01:48:23.380Z,1.80
2023-02-05T01:50:54.873Z,1.80
2023-02-05T01:53:25.842Z,1.70
2023-02-05T01:55:58.214Z,1.88
2023-02-05T01:58:30.726Z,1.70
2023-02-05T02:01:00.292Z,2.05
2023-02-05T02:03:31.448Z,1.73
2023-02-05T02:05:59.990Z,2.00
2023-02-05T02:08:28.332Z,2.10
2023-02-05T02:10:57.970Z,2.00
2023-02-05T02:13:29.120Z,1.90
2023-02-05T02:15:58.736Z,1.75
2023-02-05T02:18:29.695Z,1.60
2023-02-05T02:21:20.747Z,1.63
2023-02-05T02:24:10.672Z,2.00
2023-02-05T02:27:07.608Z,1.60
2023-02-05T02:29:41.852Z,2.03
2023-02-05T02:32:17.086Z,1.80
2023-02-05T02:34:49.535Z,1.70
2023-02-05T02:37:25.179Z,1.73
2023-02-05T02:40:00.012Z,1.70
2023-02-05T02:42:34.450Z,1.58
2023-02-05T02:45:08.260Z,1.85
2023-02-05T02:47:39.311Z,1.95
2023-02-05T02:50:11.773Z,2.08
2023-02-05T02:52:45.315Z,1.70
2023-02-05T02:55:15.998Z,1.80
2023-02-05T02:57:49.668Z,1.83
2023-02-05T03:00:23.059Z,1.48
2023-02-05T03:02:54.429Z,1.80
2023-02-05T03:05:24.818Z,1.83
2023-02-05T03:07:57.303Z,1.88
2023-02-05T03:10:32.082Z,1.80
2023-02-05T03:13:00.674Z,1.70
2023-02-05T03:15:32.769Z,1.85
2023-02-05T03:18:01.245Z,1.80
2023-02-05T03:20:33.744Z,1.60
2023-02-05T03:23:02.354Z,1.85
2023-02-05T03:25:31.236Z,1.50
2023-02-05T03:28:01.700Z,2.00
2023-02-05T03:30:42.566Z,1.70
2023-02-05T03:33:25.598Z,1.70
2023-02-05T03:36:01.219Z,1.58
2023-02-05T03:38:44.065Z,1.90
2023-02-05T03:41:21.770Z,1.75
2023-02-05T03:44:01.785Z,1.92
2023-02-05T03:46:39.150Z,1.65
2023-02-05T03:49:17.895Z,1.77
2023-02-05T03:51:52.154Z,1.80
2023-02-05T03:54:29.402Z,1.80
2023-02-05T03:57:04.673Z,2.00
2023-02-05T03:59:38.070Z,1.70
2023-02-05T04:02:09.216Z,1.38
2023-02-05T04:04:41.823Z,1.60
2023-02-05T04:07:11.496Z,1.63
2023-02-05T04:09:40.328Z,1.60
2023-02-05T04:12:10.112Z,1.67
2023-02-05T04:14:39.869Z,1.55
2023-02-05T04:17:11.145Z,1.60
2023-02-05T04:19:41.412Z,1.70
2023-02-05T04:22:10.043Z,1.60
2023-02-05T04:24:41.761Z,1.50
2023-02-05T04:27:10.497Z,1.63
2023-02-05T04:29:39.179Z,1.60
2023-02-05T04:32:09.395Z,2.08
2023-02-05T04:34:37.577Z,1.60
2023-02-05T04:37:07.996Z,2.13
2023-02-05T04:39:36.228Z,1.70
2023-02-05T04:42:04.488Z,2.08
2023-02-05T04:44:32.748Z,1.42
2023-02-05T04:47:01.114Z,2.15
2023-02-05T04:49:32.882Z,1.80
2023-02-05T04:52:01.159Z,1.77
2023-02-05T04:54:29.848Z,1.35
2023-02-05T04:56:58.077Z,2.05
2023-02-05T04:59:26.336Z,1.70
2023-02-05T05:01:54.551Z,1.50
2023-02-05T05:04:22.783Z,2.08
2023-02-05T05:06:52.314Z,1.95
2023-02-05T05:09:23.960Z,1.90
2023-02-05T05:11:52.349Z,1.70
2023-02-05T05:14:20.671Z,2.10
2023-02-05T05:16:49.581Z,1.63
2023-02-05T05:19:18.449Z,1.85
2023-02-05T05:21:46.581Z,2.03
2023-02-05T05:24:16.137Z,1.90
2023-02-05T05:26:45.160Z,2.08
2023-02-05T05:29:14.543Z,1.55
2023-02-05T05:31:43.423Z,1.83
2023-02-05T05:34:11.628Z,1.77
2023-02-05T05:36:43.639Z,1.88
2023-02-05T05:39:29.733Z,1.90
2023-02-05T05:42:16.871Z,1.85
2023-02-05T05:44:45.371Z,1.67
2023-02-05T05:47:13.524Z,1.90
2023-02-05T05:49:41.668Z,2.10
2023-02-05T05:52:09.831Z,2.13
2023-02-05T05:54:38.074Z,1.85
2023-02-05T05:57:09.015Z,2.00
2023-02-05T05:59:37.519Z,1.85
2023-02-05T06:02:06.009Z,1.88
2023-02-05T06:04:34.269Z,2.15
2023-02-05T06:07:02.492Z,2.13
2023-02-05T06:09:30.828Z,2.30
2023-02-05T06:11:59.123Z,2.35
2023-02-05T06:14:28.821Z,2.63
2023-02-05T06:16:57.078Z,3.17
2023-02-05T06:19:25.450Z,2.88
2023-02-05T06:21:53.746Z,3.58
2023-02-05T06:24:22.170Z,3.28
2023-02-05T06:26:50.393Z,3.45
2023-02-05T06:29:18.595Z,3.03
2023-02-05T06:31:48.233Z,3.67
2023-02-05T06:34:16.556Z,4.05
2023-02-05T06:36:44.780Z,3.67
2023-02-05T06:39:13.016Z,3.97
2023-02-05T06:41:41.236Z,4.13
2023-02-05T06:44:09.457Z,4.60
2023-02-05T06:46:37.673Z,4.57
2023-02-05T06:49:07.234Z,4.63
2023-02-05T06:51:35.451Z,4.70
2023-02-05T06:54:03.903Z,4.80
2023-02-05T06:56:32.076Z,5.32
2023-02-05T06:59:00.261Z,4.28
2023-02-05T07:01:28.802Z,4.32
2023-02-05T07:03:57.103Z,4.55
2023-02-05T07:06:27.221Z,4.80
2023-02-05T07:08:56.092Z,4.97
2023-02-05T07:11:24.639Z,4.40
2023-02-05T07:13:53.158Z,4.25
2023-02-05T07:16:21.475Z,4.07
2023-02-05T07:18:49.819Z,4.32
2023-02-05T07:21:18.431Z,4.25
2023-02-05T07:23:48.045Z,4.43
2023-02-05T07:26:18.314Z,4.07
2023-02-05T07:28:46.614Z,3.95
2023-02-05T07:31:17.141Z,4.70
2023-02-05T07:33:46.258Z,3.33
2023-02-05T07:36:17.187Z,4.70
2023-02-05T07:38:48.019Z,4.53
2023-02-05T07:41:17.348Z,3.75
2023-02-05T07:43:45.706Z,4.22
2023-02-05T07:46:15.587Z,4.10
2023-02-05T07:48:43.865Z,3.72
2023-02-05T07:51:16.689Z,3.90
2023-02-05T07:53:45.172Z,3.72
2023-02-05T07:56:15.644Z,3.60
2023-02-05T07:58:44.482Z,3.35
2023-02-05T08:01:12.742Z,3.65
2023-02-05T08:03:41.059Z,3.53
2023-02-05T08:06:13.885Z,3.80
2023-02-05T08:08:42.219Z,3.45
2023-02-05T08:11:16.659Z,3.53
2023-02-05T08:13:44.941Z,3.28
2023-02-05T08:16:15.629Z,4.10
2023-02-05T08:18:44.305Z,3.25
2023-02-05T08:21:12.634Z,3.83
2023-02-05T08:23:40.874Z,3.28
2023-02-05T08:26:09.129Z,3.30
2023-02-05T08:28:38.672Z,3.53
2023-02-05T08:31:11.698Z,3.00
2023-02-05T08:33:40.198Z,3.30
2023-02-05T08:36:09.569Z,3.35
2023-02-05T08:38:37.866Z,3.28
2023-02-05T08:41:12.348Z,3.25
2023-02-05T08:43:43.974Z,3.40
2023-02-05T08:46:14.829Z,3.45
2023-02-05T08:48:43.307Z,3.10
2023-02-05T08:51:12.430Z,3.28
2023-02-05T08:53:41.431Z,3.33
2023-02-05T08:56:10.827Z,3.42
2023-02-05T08:58:39.792Z,3.22
2023-02-05T09:01:12.710Z,3.13
2023-02-05T09:03:41.664Z,3.00
2023-02-05T09:06:12.682Z,3.08
2023-02-05T09:08:41.145Z,3.00
2023-02-05T09:11:09.677Z,3.05
2023-02-05T09:13:37.953Z,3.88
2023-02-05T09:16:06.634Z,2.83
2023-02-05T09:18:36.272Z,2.75
2023-02-05T09:21:08.656Z,3.00
2023-02-05T09:23:37.750Z,2.88
2023-02-05T09:26:06.969Z,2.90
2023-02-05T09:28:35.201Z,2.83
2023-02-05T09:31:08.410Z,2.63
2023-02-05T09:33:38.117Z,2.55
2023-02-05T09:36:07.695Z,2.75
2023-02-05T09:38:35.923Z,2.63
2023-02-05T09:41:09.220Z,2.63
2023-02-05T09:43:49.386Z,2.70
2023-02-05T09:46:25.668Z,2.80
2023-02-05T09:49:00.771Z,2.85
2023-02-05T09:51:34.710Z,2.47
2023-02-05T09:54:13.330Z,2.60
2023-02-05T09:56:43.234Z,2.55
2023-02-05T09:59:15.648Z,2.60
2023-02-05T10:01:49.119Z,2.80
2023-02-05T10:04:19.511Z,2.63
2023-02-05T10:07:06.382Z,2.50
2023-02-05T10:09:47.904Z,2.55
2023-02-05T10:12:29.421Z,2.30
2023-02-05T10:15:09.058Z,2.70
2023-02-05T10:17:53.591Z,2.00
2023-02-05T10:20:51.278Z,2.28
2023-02-05T10:23:34.102Z,2.35
2023-02-05T10:26:10.671Z,2.42
2023-02-05T10:28:49.646Z,2.80
2023-02-05T10:31:28.899Z,2.40
2023-02-05T10:34:05.417Z,2.70
2023-02-05T10:36:35.348Z,2.55
2023-02-05T10:39:13.493Z,2.15
2023-02-05T10:41:45.876Z,2.10
2023-02-05T10:44:19.325Z,2.58
2023-02-05T10:46:51.931Z,2.20
2023-02-05T10:49:25.448Z,2.38
2023-02-05T10:51:55.201Z,2.25
2023-02-05T10:54:29.104Z,2.05
2023-02-05T10:56:58.609Z,2.67
2023-02-05T10:59:30.352Z,2.30
2023-02-05T11:02:03.194Z,2.45
2023-02-05T11:04:38.925Z,2.10
2023-02-05T11:07:13.312Z,2.28
2023-02-05T11:09:41.654Z,2.42
2023-02-05T11:12:21.231Z,2.13
2023-02-05T11:14:57.844Z,2.65
2023-02-05T11:17:31.814Z,2.47
2023-02-05T11:20:03.992Z,2.00
2023-02-05T11:22:36.245Z,2.00
2023-02-05T11:25:16.864Z,2.40
2023-02-05T11:27:53.443Z,2.22
2023-02-05T11:30:50.066Z,2.15
2023-02-05T11:33:31.239Z,2.10
2023-02-05T11:36:02.848Z,1.88
2023-02-05T11:38:38.450Z,1.80
2023-02-05T11:41:09.779Z,1.92
2023-02-05T11:43:41.590Z,2.50
2023-02-05T11:46:15.627Z,2.35
2023-02-05T11:48:46.009Z,2.40
2023-02-05T11:51:16.791Z,1.90
2023-02-05T11:53:53.326Z,2.15
2023-02-05T11:56:25.409Z,1.75
2023-02-05T11:59:01.885Z,2.10
2023-02-05T12:01:34.080Z,1.85
2023-02-05T12:04:04.330Z,2.10
2023-02-05T12:06:38.290Z,1.80
2023-02-05T12:09:10.190Z,2.15
2023-02-05T12:12:03.749Z,1.70
2023-02-05T12:14:41.479Z,2.17
2023-02-05T12:17:27.251Z,1.90
2023-02-05T12:20:03.050Z,1.90
2023-02-05T12:22:50.320Z,2.00
2023-02-05T12:25:26.544Z,1.80
2023-02-05T12:28:15.388Z,1.92
2023-02-05T12:30:54.999Z,1.60
2023-02-05T12:33:49.132Z,1.95
2023-02-05T12:36:40.532Z,2.22
2023-02-05T12:39:22.664Z,1.63
2023-02-05T12:42:01.932Z,1.90
2023-02-05T12:44:44.251Z,1.60
2023-02-05T12:47:30.728Z,1.70
2023-02-05T12:50:11.677Z,1.75
2023-02-05T12:52:53.918Z,1.80
2023-02-05T12:55:36.134Z,1.70
2023-02-05T12:58:08.410Z,1.77
2023-02-05T13:00:45.561Z,1.58
2023-02-05T13:03:23.881Z,1.73
2023-02-05T13:05:56.271Z,1.60
2023-02-05T13:08:33.837Z,1.80
2023-02-05T13:11:08.987Z,1.52
2023-02-05T13:13:51.596Z,1.55
2023-02-05T13:16:21.480Z,1.77
2023-02-05T13:18:58.873Z,1.92
2023-02-05T13:21:46.037Z,1.77
2023-02-05T13:24:43.479Z,1.30
2023-02-05T13:27:42.165Z,1.50
2023-02-05T13:30:16.881Z,1.85
2023-02-05T13:32:48.778Z,1.63
2023-02-05T13:35:17.696Z,1.70
2023-02-05T13:38:17.411Z,1.63
2023-02-05T13:41:10.836Z,1.40
2023-02-05T13:44:19.843Z,1.50
2023-02-05T13:47:19.882Z,1.40
2023-02-05T13:50:42.129Z,1.70
2023-02-05T13:53:26.209Z,1.60
2023-02-05T13:56:12.039Z,1.40
2023-02-05T13:58:49.364Z,1.63
2023-02-05T14:01:23.354Z,1.45
2023-02-05T14:03:58.967Z,1.58
2023-02-05T14:06:31.655Z,1.60
2023-02-05T14:09:02.555Z,1.60
2023-02-05T14:11:47.721Z,1.30
2023-02-05T14:14:26.826Z,1.40
2023-02-05T14:16:56.088Z,1.50
2023-02-05T14:19:28.394Z,1.60
2023-02-05T14:22:07.287Z,1.33
2023-02-05T14:24:44.911Z,1.60
2023-02-05T14:27:50.263Z,1.30
2023-02-05T14:30:52.401Z,1.40
2023-02-05T14:33:38.513Z,1.30
2023-02-05T14:36:33.072Z,1.30
2023-02-05T14:39:06.118Z,1.60
2023-02-05T14:41:50.588Z,1.52
2023-02-05T14:44:22.637Z,1.20
2023-02-05T14:47:03.004Z,1.50
2023-02-05T14:49:38.710Z,1.52
2023-02-05T14:52:20.578Z,1.45
2023-02-05T14:54:54.400Z,1.42
2023-02-05T14:57:28.873Z,1.50
2023-02-05T15:00:00.258Z,1.33
2023-02-05T15:03:01.806Z,1.35
2023-02-05T15:05:35.972Z,1.35
2023-02-05T15:08:13.049Z,1.10
2023-02-05T15:10:49.379Z,1.08
2023-02-05T15:13:18.758Z,1.40
2023-02-05T15:16:16.117Z,1.30
2023-02-05T15:18:45.360Z,1.40
2023-02-05T15:21:18.908Z,1.70
2023-02-05T15:23:53.665Z,1.40
2023-02-05T15:26:29.228Z,1.20
2023-02-05T15:29:01.138Z,1.45
2023-02-05T15:31:34.865Z,1.30
2023-02-05T15:34:22.048Z,1.33
2023-02-05T15:36:55.791Z,1.30
2023-02-05T15:39:31.374Z,1.50
2023-02-05T15:42:05.156Z,1.30
2023-02-05T15:44:35.343Z,1.63
2023-02-05T15:47:08.388Z,1.23
2023-02-05T15:49:39.132Z,1.20
2023-02-05T15:52:07.999Z,1.23
2023-02-05T15:54:38.897Z,1.50
2023-02-05T15:57:08.595Z,1.17
2023-02-05T15:59:36.894Z,1.25
2023-02-05T16:02:10.100Z,1.30
2023-02-05T16:04:40.067Z,1.20
2023-02-05T16:07:20.389Z,1.48
2023-02-05T16:09:53.859Z,1.10
2023-02-05T16:12:22.276Z,1.40
2023-02-05T16:14:59.648Z,1.38
2023-02-05T16:17:33.186Z,1.15
2023-02-05T16:20:16.045Z,1.73
2023-02-05T16:22:49.030Z,1.50
2023-02-05T16:25:30.392Z,1.30
2023-02-05T16:28:00.763Z,1.67
2023-02-05T16:30:35.666Z,1.30
2023-02-05T16:33:06.038Z,1.33
2023-02-05T16:35:38.586Z,1.30
2023-02-05T16:38:09.201Z,1.30
2023-02-05T16:40:43.187Z,1.30
2023-02-05T16:43:21.976Z,1.33
2023-02-05T16:46:26.534Z,1.38
2023-02-05T16:48:57.118Z,1.15
2023-02-05T16:51:56.324Z,1.10
2023-02-05T16:54:33.514Z,1.10
2023-02-05T16:57:10.826Z,1.27
2023-02-05T16:59:49.652Z,1.20
2023-02-05T17:02:37.168Z,1.10
2023-02-05T17:05:08.131Z,1.10
2023-02-05T17:07:36.575Z,1.58
2023-02-05T17:10:17.220Z,1.20
2023-02-05T17:12:54.557Z,1.30
2023-02-05T17:15:29.372Z,1.27
2023-02-05T17:18:04.426Z,1.17
2023-02-05T17:20:34.237Z,1.00
2023-02-05T17:23:13.434Z,1.35
2023-02-05T17:25:49.586Z,1.10
2023-02-05T17:28:21.913Z,1.30
2023-02-05T17:30:50.722Z,1.27
2023-02-05T17:33:21.066Z,1.40
2023-02-05T17:35:50.812Z,0.93
2023-02-05T17:38:20.509Z,1.20
2023-02-05T17:40:48.978Z,1.40
2023-02-05T17:43:18.512Z,1.20
2023-02-05T17:45:46.716Z,1.20
2023-02-05T17:48:14.931Z,1.05
2023-02-05T17:50:43.223Z,1.20
2023-02-05T17:53:14.042Z,0.95
2023-02-05T17:55:42.357Z,1.17
2023-02-05T17:58:10.516Z,1.30
2023-02-05T18:00:40.290Z,1.40
2023-02-05T18:03:08.560Z,1.20
2023-02-05T18:05:36.716Z,1.23
2023-02-05T18:08:06.351Z,1.10
2023-02-05T18:10:35.035Z,1.20
2023-02-05T18:13:03.384Z,1.50
2023-02-05T18:15:33.303Z,1.10
2023-02-05T18:18:05.722Z,1.23
2023-02-05T18:20:34.277Z,1.13
2023-02-05T18:23:03.080Z,1.10
2023-02-05T18:25:31.347Z,1.45
2023-02-05T18:27:59.604Z,1.10
2023-02-05T18:30:28.617Z,1.27
2023-02-05T18:32:56.899Z,1.08
2023-02-05T18:35:26.461Z,1.20
2023-02-05T18:37:54.603Z,1.23
2023-02-05T18:40:22.994Z,1.20
2023-02-05T18:42:53.801Z,1.40
2023-02-05T18:45:22.105Z,1.20
2023-02-05T18:47:52.516Z,1.23
2023-02-05T18:50:20.910Z,1.23
2023-02-05T18:52:50.760Z,1.23
2023-02-05T18:55:19.194Z,1.13
2023-02-05T18:57:47.446Z,1.25
2023-02-05T19:00:16.446Z,0.88
2023-02-05T19:02:44.789Z,1.20
2023-02-05T19:05:12.929Z,1.17
2023-02-05T19:07:41.240Z,1.30
2023-02-05T19:10:11.163Z,1.00
2023-02-05T19:12:39.454Z,1.00
2023-02-05T19:15:08.426Z,1.10
2023-02-05T19:17:36.589Z,1.30
2023-02-05T19:20:05.910Z,1.00
2023-02-05T19:22:34.060Z,1.55
2023-02-05T19:25:02.306Z,0.95
2023-02-05T19:27:31.948Z,1.02
2023-02-05T19:30:00.196Z,1.38
2023-02-05T19:32:28.525Z,1.40
2023-02-05T19:34:56.772Z,1.00
2023-02-05T19:37:24.963Z,1.20
2023-02-05T19:39:53.148Z,1.17
2023-02-05T19:42:21.411Z,1.20
2023-02-05T19:44:50.996Z,1.20
2023-02-05T19:47:19.268Z,1.20
2023-02-05T19:49:47.484Z,1.10
2023-02-05T19:52:15.751Z,1.30
2023-02-05T19:54:44.097Z,1.50
2023-02-05T19:57:12.457Z,1.30
2023-02-05T19:59:40.711Z,1.35
2023-02-05T20:02:11.465Z,1.40
2023-02-05T20:04:41.952Z,1.00
2023-02-05T20:07:10.240Z,1.10
2023-02-05T20:09:38.548Z,1.33
2023-02-05T20:12:07.116Z,1.20
2023-02-05T20:14:35.453Z,1.00
2023-02-05T20:17:03.948Z,1.40
2023-02-05T20:19:33.497Z,1.20
2023-02-05T20:22:01.777Z,1.30
2023-02-05T20:24:29.961Z,1.10
2023-02-05T20:26:58.636Z,1.08
2023-02-05T20:29:44.129Z,1.30
2023-02-05T20:32:12.501Z,1.25
2023-02-05T20:34:47.592Z,1.10
2023-02-05T20:37:15.863Z,1.50
2023-02-05T20:39:44.829Z,1.00
2023-02-05T20:42:14.348Z,1.20
2023-02-05T20:44:43.837Z,1.15
2023-02-05T20:47:14.605Z,1.17
2023-02-05T20:49:44.154Z,1.30
2023-02-05T20:52:13.107Z,1.30
2023-02-05T20:54:41.761Z,1.10
2023-02-05T20:57:10.136Z,1.20
2023-02-05T20:59:38.635Z,1.40
2023-02-05T21:02:07.915Z,1.33
2023-02-05T21:04:37.354Z,0.90
2023-02-05T21:07:06.920Z,1.10
2023-02-05T21:09:35.232Z,1.27
2023-02-05T21:12:03.488Z,1.30
2023-02-05T21:14:31.986Z,1.20
2023-02-05T21:17:00.853Z,1.10
2023-02-05T21:19:29.162Z,1.15
2023-02-05T21:21:57.663Z,1.27
2023-02-05T21:24:27.194Z,1.25
2023-02-05T21:26:55.453Z,0.90
2023-02-05T21:29:23.725Z,1.05
2023-02-05T21:31:55.538Z,1.30
2023-02-05T21:34:27.142Z,1.27
2023-02-05T21:36:56.371Z,1.17
2023-02-05T21:39:25.525Z,1.20
2023-02-05T21:41:55.489Z,1.10
2023-02-05T21:44:23.718Z,1.20
2023-02-05T21:46:53.297Z,1.15
2023-02-05T21:49:21.542Z,1.10
2023-02-05T21:51:50.399Z,1.30
2023-02-05T21:54:20.760Z,1.55
2023-02-05T21:56:48.980Z,1.05
2023-02-05T21:59:20.010Z,1.27
2023-02-05T22:01:48.281Z,1.30
2023-02-05T22:04:17.556Z,1.20
2023-02-05T22:06:45.754Z,1.20
2023-02-05T22:09:16.631Z,1.23
2023-02-05T22:11:44.898Z,1.20
2023-02-05T22:14:13.493Z,1.10
2023-02-05T22:16:43.224Z,1.23
2023-02-05T22:19:11.536Z,1.02
2023-02-05T22:21:41.408Z,1.30
2023-02-05T22:24:13.438Z,1.20
2023-02-05T22:26:41.920Z,1.13
2023-02-05T22:29:13.251Z,1.40
2023-02-05T22:31:44.329Z,1.20
2023-02-05T22:34:12.989Z,1.27
2023-02-05T22:36:41.230Z,1.00
2023-02-05T22:39:09.618Z,1.33
2023-02-05T22:41:39.521Z,1.45
2023-02-05T22:44:09.126Z,1.00
2023-02-05T22:46:40.412Z,1.10
2023-02-05T22:49:12.732Z,1.20
2023-02-05T22:51:42.043Z,1.40
2023-02-05T22:54:12.929Z,1.27
2023-02-05T22:56:41.170Z,1.17
2023-02-05T22:59:09.582Z,1.27
2023-02-05T23:01:39.357Z,1.20
2023-02-05T23:04:11.826Z,1.15
2023-02-05T23:06:41.747Z,1.10
2023-02-05T23:09:12.071Z,1.30
2023-02-05T23:11:40.492Z,1.20
2023-02-05T23:14:10.295Z,1.23
2023-02-05T23:16:40.658Z,1.27
2023-02-05T23:19:13.575Z,1.30
2023-02-05T23:21:42.093Z,1.15
2023-02-05T23:24:10.522Z,1.20
2023-02-05T23:26:42.110Z,1.15
2023-02-05T23:29:12.597Z,1.30
2023-02-05T23:31:40.887Z,1.00
2023-02-05T23:34:09.300Z,1.10
2023-02-05T23:36:39.036Z,1.08
2023-02-05T23:39:07.211Z,1.20
2023-02-05T23:41:39.734Z,1.33
2023-02-05T23:44:12.062Z,1.38
2023-02-05T23:46:41.366Z,1.20
2023-02-05T23:49:10.145Z,1.23
2023-02-05T23:51:39.861Z,1.10
2023-02-05T23:54:09.389Z,1.40
2023-02-05T23:56:38.236Z,1.10
2023-02-05T23:59:07.709Z,1.05
